Terminal Aerodrome Forecast
Issued by NWS

Home | Current Version | Previous Version | Graphics & Text | Print | Product List | Glossary Off
Versions: 1 2 3 4 5 6 7 8 9 10 11 12 13 14 15 16 17 18 19 20 21 22 23 24 25 26 27 28 29 30 31 32 33 34 35 36

839
FTUS43 KDDC 230650 AAA
TAFGCK
TAF AMD
KGCK 230650Z 2307/2406 34016G26KT P6SM VCSH OVC090
     FM230900 34010G20KT P6SM SCT100
     FM231500 35017G27KT P6SM BKN070
     FM231800 34020G30KT P6SM OVC070
     FM240000 36010G20KT P6SM BKN070
     FM240300 36010KT P6SM SCT070=

USA.gov is the U.S. government's official web portal to all federal, state and local government web resources and services.